sensor_id;sensor_type;location;lat;lon;timestamp;P1;durP1;ratioP1;P2;durP2;ratioP2
12597;SDS011;6364;53.590;9.956;2022-11-15T00:01:02;62.83;;;33.40;;
12597;SDS011;6364;53.590;9.956;2022-11-15T00:03:31;60.70;;;32.50;;
12597;SDS011;6364;53.590;9.956;2022-11-15T00:06:00;58.58;;;32.08;;
12597;SDS011;6364;53.590;9.956;2022-11-15T00:08:28;59.58;;;31.70;;
12597;SDS011;6364;53.590;9.956;2022-11-15T00:10:55;63.13;;;31.98;;
12597;SDS011;6364;53.590;9.956;2022-11-15T00:13:21;60.10;;;30.92;;
12597;SDS011;6364;53.590;9.956;2022-11-15T00:15:47;58.50;;;31.38;;
12597;SDS011;6364;53.590;9.956;2022-11-15T00:18:12;55.42;;;30.63;;
12597;SDS011;6364;53.590;9.956;2022-11-15T00:20:40;57.35;;;32.50;;
12597;SDS011;6364;53.590;9.956;2022-11-15T00:23:05;56.65;;;30.90;;
12597;SDS011;6364;53.590;9.956;2022-11-15T00:25:31;64.05;;;32.55;;
12597;SDS011;6364;53.590;9.956;2022-11-15T00:27:57;57.92;;;31.23;;
12597;SDS011;6364;53.590;9.956;2022-11-15T00:30:23;59.03;;;33.30;;
12597;SDS011;6364;53.590;9.956;2022-11-15T00:32:49;57.90;;;30.63;;
12597;SDS011;6364;53.590;9.956;2022-11-15T00:35:14;55.60;;;32.30;;
12597;SDS011;6364;53.590;9.956;2022-11-15T00:37:39;54.88;;;31.63;;
12597;SDS011;6364;53.590;9.956;2022-11-15T00:40:05;56.10;;;30.10;;
12597;SDS011;6364;53.590;9.956;2022-11-15T00:42:31;58.30;;;32.47;;
12597;SDS011;6364;53.590;9.956;2022-11-15T00:44:56;56.78;;;31.58;;
12597;SDS011;6364;53.590;9.956;2022-11-15T00:47:21;57.20;;;31.65;;
12597;SDS011;6364;53.590;9.956;2022-11-15T00:49:46;52.35;;;29.13;;
12597;SDS011;6364;53.590;9.956;2022-11-15T00:52:12;53.22;;;30.42;;
12597;SDS011;6364;53.590;9.956;2022-11-15T00:54:37;53.38;;;29.80;;
12597;SDS011;6364;53.590;9.956;2022-11-15T00:57:05;53.15;;;29.15;;
12597;SDS011;6364;53.590;9.956;2022-11-15T00:59:31;50.22;;;30.30;;
12597;SDS011;6364;53.590;9.956;2022-11-15T01:01:56;49.92;;;27.85;;
12597;SDS011;6364;53.590;9.956;2022-11-15T01:04:21;50.10;;;29.58;;
12597;SDS011;6364;53.590;9.956;2022-11-15T01:06:46;50.38;;;29.60;;
12597;SDS011;6364;53.590;9.956;2022-11-15T01:09:12;50.13;;;27.95;;
12597;SDS011;6364;53.590;9.956;2022-11-15T01:11:38;52.53;;;29.65;;
12597;SDS011;6364;53.590;9.956;2022-11-15T01:14:03;47.80;;;28.73;;
12597;SDS011;6364;53.590;9.956;2022-11-15T01:16:29;48.67;;;28.23;;
12597;SDS011;6364;53.590;9.956;2022-11-15T01:18:54;46.67;;;27.95;;
12597;SDS011;6364;53.590;9.956;2022-11-15T01:21:19;48.17;;;27.42;;
12597;SDS011;6364;53.590;9.956;2022-11-15T01:23:45;46.28;;;27.08;;
12597;SDS011;6364;53.590;9.956;2022-11-15T01:26:11;52.25;;;28.42;;
12597;SDS011;6364;53.590;9.956;2022-11-15T01:28:39;49.33;;;27.65;;
12597;SDS011;6364;53.590;9.956;2022-11-15T01:31:06;49.35;;;26.65;;
12597;SDS011;6364;53.590;9.956;2022-11-15T01:33:36;50.40;;;27.63;;
12597;SDS011;6364;53.590;9.956;2022-11-15T01:36:09;44.45;;;26.77;;
12597;SDS011;6364;53.590;9.956;2022-11-15T01:38:36;47.92;;;27.60;;
12597;SDS011;6364;53.590;9.956;2022-11-15T01:41:02;50.25;;;27.65;;
12597;SDS011;6364;53.590;9.956;2022-11-15T01:43:32;48.92;;;27.67;;
12597;SDS011;6364;53.590;9.956;2022-11-15T01:46:04;49.15;;;27.52;;
12597;SDS011;6364;53.590;9.956;2022-11-15T01:48:33;49.67;;;28.08;;
12597;SDS011;6364;53.590;9.956;2022-11-15T01:50:59;53.13;;;29.23;;
12597;SDS011;6364;53.590;9.956;2022-11-15T01:53:26;49.20;;;28.42;;
12597;SDS011;6364;53.590;9.956;2022-11-15T01:55:52;51.45;;;28.48;;
12597;SDS011;6364;53.590;9.956;2022-11-15T01:58:18;51.33;;;28.25;;
12597;SDS011;6364;53.590;9.956;2022-11-15T02:00:44;51.40;;;29.52;;
12597;SDS011;6364;53.590;9.956;2022-11-15T02:03:09;51.00;;;27.85;;
12597;SDS011;6364;53.590;9.956;2022-11-15T02:05:35;46.53;;;27.00;;
12597;SDS011;6364;53.590;9.956;2022-11-15T02:08:01;51.38;;;27.88;;
12597;SDS011;6364;53.590;9.956;2022-11-15T02:10:27;49.35;;;29.05;;
12597;SDS011;6364;53.590;9.956;2022-11-15T02:12:52;54.95;;;29.27;;
12597;SDS011;6364;53.590;9.956;2022-11-15T02:15:19;54.13;;;28.60;;
12597;SDS011;6364;53.590;9.956;2022-11-15T02:17:51;52.42;;;26.65;;
12597;SDS011;6364;53.590;9.956;2022-11-15T02:20:42;50.47;;;28.20;;
12597;SDS011;6364;53.590;9.956;2022-11-15T02:39:25;50.88;;;27.50;;
12597;SDS011;6364;53.590;9.956;2022-11-15T02:42:13;55.40;;;27.98;;
12597;SDS011;6364;53.590;9.956;2022-11-15T02:45:03;52.05;;;28.27;;
12597;SDS011;6364;53.590;9.956;2022-11-15T02:47:31;56.42;;;27.35;;
12597;SDS011;6364;53.590;9.956;2022-11-15T02:50:00;51.35;;;27.52;;
12597;SDS011;6364;53.590;9.956;2022-11-15T02:52:29;56.22;;;28.73;;
12597;SDS011;6364;53.590;9.956;2022-11-15T02:54:54;54.10;;;29.10;;
12597;SDS011;6364;53.590;9.956;2022-11-15T02:57:29;50.47;;;28.45;;
12597;SDS011;6364;53.590;9.956;2022-11-15T03:07:49;53.58;;;28.38;;
12597;SDS011;6364;53.590;9.956;2022-11-15T03:10:22;51.95;;;27.30;;
12597;SDS011;6364;53.590;9.956;2022-11-15T03:12:54;54.17;;;27.90;;
12597;SDS011;6364;53.590;9.956;2022-11-15T03:15:23;56.08;;;28.65;;
12597;SDS011;6364;53.590;9.956;2022-11-15T03:20:23;56.83;;;28.60;;
12597;SDS011;6364;53.590;9.956;2022-11-15T03:22:49;54.25;;;27.65;;
12597;SDS011;6364;53.590;9.956;2022-11-15T03:25:17;50.67;;;28.05;;
12597;SDS011;6364;53.590;9.956;2022-11-15T03:27:46;52.95;;;28.90;;
12597;SDS011;6364;53.590;9.956;2022-11-15T03:30:14;51.10;;;28.25;;
12597;SDS011;6364;53.590;9.956;2022-11-15T03:32:41;56.72;;;29.50;;
12597;SDS011;6364;53.590;9.956;2022-11-15T03:35:26;56.83;;;28.63;;
12597;SDS011;6364;53.590;9.956;2022-11-15T03:40:54;58.03;;;27.88;;
12597;SDS011;6364;53.590;9.956;2022-11-15T03:46:13;52.95;;;27.73;;
12597;SDS011;6364;53.590;9.956;2022-11-15T03:48:41;48.65;;;27.50;;
12597;SDS011;6364;53.590;9.956;2022-11-15T03:51:09;53.97;;;27.15;;
12597;SDS011;6364;53.590;9.956;2022-11-15T03:53:35;49.17;;;27.05;;
12597;SDS011;6364;53.590;9.956;2022-11-15T03:56:00;51.70;;;28.63;;
12597;SDS011;6364;53.590;9.956;2022-11-15T03:58:26;47.15;;;26.27;;
12597;SDS011;6364;53.590;9.956;2022-11-15T04:00:51;51.88;;;27.05;;
12597;SDS011;6364;53.590;9.956;2022-11-15T04:03:16;50.35;;;27.15;;
12597;SDS011;6364;53.590;9.956;2022-11-15T04:05:42;55.83;;;28.20;;
12597;SDS011;6364;53.590;9.956;2022-11-15T04:08:07;55.47;;;27.42;;
12597;SDS011;6364;53.590;9.956;2022-11-15T04:10:32;51.85;;;27.42;;
12597;SDS011;6364;53.590;9.956;2022-11-15T04:12:57;49.28;;;26.35;;
12597;SDS011;6364;53.590;9.956;2022-11-15T04:15:23;46.80;;;26.60;;
12597;SDS011;6364;53.590;9.956;2022-11-15T04:17:50;55.85;;;27.10;;
12597;SDS011;6364;53.590;9.956;2022-11-15T04:20:21;50.63;;;27.38;;
12597;SDS011;6364;53.590;9.956;2022-11-15T04:23:08;48.10;;;26.35;;
12597;SDS011;6364;53.590;9.956;2022-11-15T04:25:54;48.65;;;25.88;;
12597;SDS011;6364;53.590;9.956;2022-11-15T04:28:20;46.97;;;26.02;;
12597;SDS011;6364;53.590;9.956;2022-11-15T04:30:45;49.08;;;26.05;;
12597;SDS011;6364;53.590;9.956;2022-11-15T04:33:11;47.75;;;26.42;;
12597;SDS011;6364;53.590;9.956;2022-11-15T04:35:36;45.95;;;25.85;;
12597;SDS011;6364;53.590;9.956;2022-11-15T04:38:02;50.83;;;25.40;;
12597;SDS011;6364;53.590;9.956;2022-11-15T04:40:29;47.25;;;25.25;;
12597;SDS011;6364;53.590;9.956;2022-11-15T04:42:54;47.38;;;25.30;;
12597;SDS011;6364;53.590;9.956;2022-11-15T04:45:20;45.22;;;24.92;;
12597;SDS011;6364;53.590;9.956;2022-11-15T04:47:45;46.15;;;25.15;;
12597;SDS011;6364;53.590;9.956;2022-11-15T04:50:11;46.15;;;25.00;;
12597;SDS011;6364;53.590;9.956;2022-11-15T04:52:39;44.38;;;23.60;;
12597;SDS011;6364;53.590;9.956;2022-11-15T04:55:05;43.65;;;24.48;;
12597;SDS011;6364;53.590;9.956;2022-11-15T04:57:31;50.70;;;26.15;;
12597;SDS011;6364;53.590;9.956;2022-11-15T04:59:56;46.55;;;25.20;;
12597;SDS011;6364;53.590;9.956;2022-11-15T05:02:21;43.83;;;24.60;;
12597;SDS011;6364;53.590;9.956;2022-11-15T05:04:46;48.03;;;24.65;;
12597;SDS011;6364;53.590;9.956;2022-11-15T05:07:12;49.85;;;25.20;;
12597;SDS011;6364;53.590;9.956;2022-11-15T05:09:37;47.03;;;24.83;;
12597;SDS011;6364;53.590;9.956;2022-11-15T05:12:02;47.95;;;24.52;;
12597;SDS011;6364;53.590;9.956;2022-11-15T05:14:28;46.95;;;24.95;;
12597;SDS011;6364;53.590;9.956;2022-11-15T05:16:54;46.15;;;25.92;;
12597;SDS011;6364;53.590;9.956;2022-11-15T05:19:19;44.40;;;25.52;;
12597;SDS011;6364;53.590;9.956;2022-11-15T05:21:44;46.80;;;25.73;;
12597;SDS011;6364;53.590;9.956;2022-11-15T05:24:10;45.42;;;26.02;;
12597;SDS011;6364;53.590;9.956;2022-11-15T05:26:36;48.38;;;25.65;;
12597;SDS011;6364;53.590;9.956;2022-11-15T05:29:01;45.78;;;25.13;;
12597;SDS011;6364;53.590;9.956;2022-11-15T05:31:27;48.67;;;25.38;;
12597;SDS011;6364;53.590;9.956;2022-11-15T05:33:52;42.70;;;23.55;;
12597;SDS011;6364;53.590;9.956;2022-11-15T05:38:44;41.22;;;23.50;;
12597;SDS011;6364;53.590;9.956;2022-11-15T05:41:10;42.85;;;23.42;;
12597;SDS011;6364;53.590;9.956;2022-11-15T05:43:37;39.45;;;23.00;;
12597;SDS011;6364;53.590;9.956;2022-11-15T05:46:03;41.45;;;23.23;;
12597;SDS011;6364;53.590;9.956;2022-11-15T05:48:29;41.33;;;23.00;;
12597;SDS011;6364;53.590;9.956;2022-11-15T05:50:54;42.83;;;22.75;;
12597;SDS011;6364;53.590;9.956;2022-11-15T05:53:21;46.67;;;23.35;;
12597;SDS011;6364;53.590;9.956;2022-11-15T05:55:47;38.80;;;22.08;;
12597;SDS011;6364;53.590;9.956;2022-11-15T05:58:13;39.30;;;22.13;;
12597;SDS011;6364;53.590;9.956;2022-11-15T06:00:38;36.65;;;22.38;;
12597;SDS011;6364;53.590;9.956;2022-11-15T06:03:04;40.28;;;21.63;;
12597;SDS011;6364;53.590;9.956;2022-11-15T06:05:29;39.50;;;21.52;;
12597;SDS011;6364;53.590;9.956;2022-11-15T06:07:58;38.30;;;22.70;;
12597;SDS011;6364;53.590;9.956;2022-11-15T06:10:23;35.35;;;21.52;;
12597;SDS011;6364;53.590;9.956;2022-11-15T06:12:58;37.10;;;21.45;;
12597;SDS011;6364;53.590;9.956;2022-11-15T06:15:25;38.25;;;20.50;;
12597;SDS011;6364;53.590;9.956;2022-11-15T06:17:50;37.47;;;21.90;;
12597;SDS011;6364;53.590;9.956;2022-11-15T06:20:15;39.60;;;21.23;;
12597;SDS011;6364;53.590;9.956;2022-11-15T06:22:48;36.50;;;20.52;;
12597;SDS011;6364;53.590;9.956;2022-11-15T06:25:21;35.33;;;20.58;;
12597;SDS011;6364;53.590;9.956;2022-11-15T06:27:50;32.47;;;20.83;;
12597;SDS011;6364;53.590;9.956;2022-11-15T06:30:17;36.05;;;20.50;;
12597;SDS011;6364;53.590;9.956;2022-11-15T06:32:42;37.47;;;20.90;;
12597;SDS011;6364;53.590;9.956;2022-11-15T06:35:07;34.22;;;20.73;;
12597;SDS011;6364;53.590;9.956;2022-11-15T06:37:33;34.33;;;20.08;;
12597;SDS011;6364;53.590;9.956;2022-11-15T06:39:58;33.85;;;20.15;;
12597;SDS011;6364;53.590;9.956;2022-11-15T06:42:23;35.25;;;19.58;;
12597;SDS011;6364;53.590;9.956;2022-11-15T06:44:49;33.65;;;19.95;;
12597;SDS011;6364;53.590;9.956;2022-11-15T06:47:14;34.00;;;19.77;;
12597;SDS011;6364;53.590;9.956;2022-11-15T06:49:39;33.78;;;20.23;;
12597;SDS011;6364;53.590;9.956;2022-11-15T06:52:05;33.00;;;19.90;;
12597;SDS011;6364;53.590;9.956;2022-11-15T06:54:30;35.92;;;20.55;;
12597;SDS011;6364;53.590;9.956;2022-11-15T06:56:55;30.48;;;19.52;;
12597;SDS011;6364;53.590;9.956;2022-11-15T06:59:20;36.10;;;19.70;;
12597;SDS011;6364;53.590;9.956;2022-11-15T07:01:46;27.83;;;18.55;;
12597;SDS011;6364;53.590;9.956;2022-11-15T07:04:11;30.58;;;19.58;;
12597;SDS011;6364;53.590;9.956;2022-11-15T07:06:36;31.25;;;19.42;;
12597;SDS011;6364;53.590;9.956;2022-11-15T07:09:02;32.45;;;20.25;;
12597;SDS011;6364;53.590;9.956;2022-11-15T07:11:28;37.25;;;19.13;;
12597;SDS011;6364;53.590;9.956;2022-11-15T07:13:53;33.08;;;18.85;;
12597;SDS011;6364;53.590;9.956;2022-11-15T07:16:18;31.45;;;20.27;;
12597;SDS011;6364;53.590;9.956;2022-11-15T07:18:44;38.33;;;19.65;;
12597;SDS011;6364;53.590;9.956;2022-11-15T07:21:10;36.45;;;20.17;;
12597;SDS011;6364;53.590;9.956;2022-11-15T07:23:38;28.10;;;18.73;;
12597;SDS011;6364;53.590;9.956;2022-11-15T07:26:04;31.70;;;19.65;;
12597;SDS011;6364;53.590;9.956;2022-11-15T07:28:30;31.67;;;18.95;;
12597;SDS011;6364;53.590;9.956;2022-11-15T07:30:55;27.35;;;18.30;;
12597;SDS011;6364;53.590;9.956;2022-11-15T07:33:21;33.78;;;18.48;;
12597;SDS011;6364;53.590;9.956;2022-11-15T07:35:46;31.00;;;18.70;;
12597;SDS011;6364;53.590;9.956;2022-11-15T07:38:15;30.42;;;18.50;;
12597;SDS011;6364;53.590;9.956;2022-11-15T07:40:41;27.85;;;18.33;;
12597;SDS011;6364;53.590;9.956;2022-11-15T07:43:06;26.45;;;17.90;;
12597;SDS011;6364;53.590;9.956;2022-11-15T07:45:32;31.90;;;18.60;;
12597;SDS011;6364;53.590;9.956;2022-11-15T07:48:01;31.10;;;18.48;;
12597;SDS011;6364;53.590;9.956;2022-11-15T07:50:26;28.85;;;19.35;;
12597;SDS011;6364;53.590;9.956;2022-11-15T07:52:54;30.25;;;18.40;;
12597;SDS011;6364;53.590;9.956;2022-11-15T07:55:24;32.80;;;19.25;;
12597;SDS011;6364;53.590;9.956;2022-11-15T07:57:50;34.28;;;18.85;;
12597;SDS011;6364;53.590;9.956;2022-11-15T08:00:16;31.05;;;18.77;;
12597;SDS011;6364;53.590;9.956;2022-11-15T08:02:42;30.60;;;18.35;;
12597;SDS011;6364;53.590;9.956;2022-11-15T08:05:07;30.92;;;19.42;;
12597;SDS011;6364;53.590;9.956;2022-11-15T08:07:33;31.85;;;18.48;;
12597;SDS011;6364;53.590;9.956;2022-11-15T08:09:58;29.48;;;18.90;;
12597;SDS011;6364;53.590;9.956;2022-11-15T08:12:26;28.75;;;18.42;;
12597;SDS011;6364;53.590;9.956;2022-11-15T08:14:54;28.48;;;17.70;;
12597;SDS011;6364;53.590;9.956;2022-11-15T08:17:21;26.88;;;17.98;;
12597;SDS011;6364;53.590;9.956;2022-11-15T08:19:46;32.42;;;18.60;;
12597;SDS011;6364;53.590;9.956;2022-11-15T08:22:12;30.70;;;19.30;;
12597;SDS011;6364;53.590;9.956;2022-11-15T08:24:38;29.15;;;18.38;;
12597;SDS011;6364;53.590;9.956;2022-11-15T08:27:03;31.10;;;18.50;;
12597;SDS011;6364;53.590;9.956;2022-11-15T08:29:28;30.27;;;18.92;;
12597;SDS011;6364;53.590;9.956;2022-11-15T08:31:54;30.67;;;18.38;;
12597;SDS011;6364;53.590;9.956;2022-11-15T08:34:20;30.45;;;19.80;;
12597;SDS011;6364;53.590;9.956;2022-11-15T08:36:46;33.28;;;19.02;;
12597;SDS011;6364;53.590;9.956;2022-11-15T08:39:11;31.13;;;18.38;;
12597;SDS011;6364;53.590;9.956;2022-11-15T08:41:40;29.17;;;18.80;;
12597;SDS011;6364;53.590;9.956;2022-11-15T08:44:05;29.80;;;18.55;;
12597;SDS011;6364;53.590;9.956;2022-11-15T08:46:30;37.50;;;18.08;;
12597;SDS011;6364;53.590;9.956;2022-11-15T08:48:56;28.58;;;17.55;;
12597;SDS011;6364;53.590;9.956;2022-11-15T08:51:21;27.10;;;17.52;;
12597;SDS011;6364;53.590;9.956;2022-11-15T08:53:46;27.60;;;18.02;;
12597;SDS011;6364;53.590;9.956;2022-11-15T08:56:12;27.10;;;18.65;;
12597;SDS011;6364;53.590;9.956;2022-11-15T08:58:39;29.13;;;17.35;;
12597;SDS011;6364;53.590;9.956;2022-11-15T09:01:04;28.75;;;17.92;;
12597;SDS011;6364;53.590;9.956;2022-11-15T09:03:30;28.52;;;17.58;;
12597;SDS011;6364;53.590;9.956;2022-11-15T09:05:59;26.75;;;17.67;;
12597;SDS011;6364;53.590;9.956;2022-11-15T09:08:28;33.38;;;17.70;;
12597;SDS011;6364;53.590;9.956;2022-11-15T09:10:54;28.35;;;17.17;;
12597;SDS011;6364;53.590;9.956;2022-11-15T09:13:20;28.50;;;17.35;;
12597;SDS011;6364;53.590;9.956;2022-11-15T09:15:46;30.05;;;17.60;;
12597;SDS011;6364;53.590;9.956;2022-11-15T09:18:11;33.70;;;17.23;;
12597;SDS011;6364;53.590;9.956;2022-11-15T09:20:36;25.25;;;17.17;;
12597;SDS011;6364;53.590;9.956;2022-11-15T09:23:02;26.83;;;17.38;;
12597;SDS011;6364;53.590;9.956;2022-11-15T09:25:28;30.52;;;16.63;;
12597;SDS011;6364;53.590;9.956;2022-11-15T09:27:54;28.08;;;17.75;;
12597;SDS011;6364;53.590;9.956;2022-11-15T09:30:19;26.42;;;17.95;;
12597;SDS011;6364;53.590;9.956;2022-11-15T09:32:45;26.13;;;16.95;;
12597;SDS011;6364;53.590;9.956;2022-11-15T09:35:10;27.60;;;16.98;;
12597;SDS011;6364;53.590;9.956;2022-11-15T09:37:35;31.05;;;17.52;;
12597;SDS011;6364;53.590;9.956;2022-11-15T09:40:01;31.95;;;17.40;;
12597;SDS011;6364;53.590;9.956;2022-11-15T09:42:30;24.90;;;16.85;;
12597;SDS011;6364;53.590;9.956;2022-11-15T09:45:20;25.90;;;15.98;;
12597;SDS011;6364;53.590;9.956;2022-11-15T09:50:40;26.48;;;16.00;;
12597;SDS011;6364;53.590;9.956;2022-11-15T09:53:11;31.98;;;16.30;;
12597;SDS011;6364;53.590;9.956;2022-11-15T09:55:58;26.00;;;15.82;;
12597;SDS011;6364;53.590;9.956;2022-11-15T09:58:33;25.50;;;15.95;;
12597;SDS011;6364;53.590;9.956;2022-11-15T10:01:03;32.60;;;15.55;;
12597;SDS011;6364;53.590;9.956;2022-11-15T10:03:33;28.08;;;16.50;;
12597;SDS011;6364;53.590;9.956;2022-11-15T10:06:01;30.55;;;16.42;;
12597;SDS011;6364;53.590;9.956;2022-11-15T10:11:32;24.42;;;16.75;;
12597;SDS011;6364;53.590;9.956;2022-11-15T10:14:10;23.80;;;15.65;;
12597;SDS011;6364;53.590;9.956;2022-11-15T10:17:02;24.85;;;15.75;;
12597;SDS011;6364;53.590;9.956;2022-11-15T10:19:35;27.05;;;16.15;;
12597;SDS011;6364;53.590;9.956;2022-11-15T10:24:52;27.23;;;16.67;;
12597;SDS011;6364;53.590;9.956;2022-11-15T10:27:29;24.10;;;15.23;;
12597;SDS011;6364;53.590;9.956;2022-11-15T10:29:54;23.08;;;15.68;;
12597;SDS011;6364;53.590;9.956;2022-11-15T10:32:20;24.85;;;15.43;;
12597;SDS011;6364;53.590;9.956;2022-11-15T10:34:47;27.92;;;16.23;;
12597;SDS011;6364;53.590;9.956;2022-11-15T10:37:13;27.33;;;16.67;;
12597;SDS011;6364;53.590;9.956;2022-11-15T10:39:39;23.27;;;16.20;;
12597;SDS011;6364;53.590;9.956;2022-11-15T10:44:53;24.17;;;15.63;;
12597;SDS011;6364;53.590;9.956;2022-11-15T10:47:26;30.63;;;15.93;;
12597;SDS011;6364;53.590;9.956;2022-11-15T10:50:04;21.90;;;14.75;;
12597;SDS011;6364;53.590;9.956;2022-11-15T10:57:47;23.40;;;14.10;;
12597;SDS011;6364;53.590;9.956;2022-11-15T11:08:17;21.27;;;13.82;;
12597;SDS011;6364;53.590;9.956;2022-11-15T11:10:55;23.10;;;14.43;;
12597;SDS011;6364;53.590;9.956;2022-11-15T11:13:23;22.23;;;14.85;;
12597;SDS011;6364;53.590;9.956;2022-11-15T11:24:36;23.42;;;14.00;;
12597;SDS011;6364;53.590;9.956;2022-11-15T11:30:14;29.27;;;14.13;;
12597;SDS011;6364;53.590;9.956;2022-11-15T11:33:05;23.13;;;14.35;;
12597;SDS011;6364;53.590;9.956;2022-11-15T11:35:35;19.75;;;13.23;;
12597;SDS011;6364;53.590;9.956;2022-11-15T11:46:09;18.98;;;12.00;;
12597;SDS011;6364;53.590;9.956;2022-11-15T11:53:54;18.60;;;11.90;;
12597;SDS011;6364;53.590;9.956;2022-11-15T11:56:28;18.83;;;12.57;;
12597;SDS011;6364;53.590;9.956;2022-11-15T11:58:59;20.92;;;12.68;;
12597;SDS011;6364;53.590;9.956;2022-11-15T12:01:40;28.67;;;18.20;;
12597;SDS011;6364;53.590;9.956;2022-11-15T12:04:15;19.00;;;12.30;;
12597;SDS011;6364;53.590;9.956;2022-11-15T12:09:41;21.33;;;11.88;;
12597;SDS011;6364;53.590;9.956;2022-11-15T12:17:12;17.17;;;10.73;;
12597;SDS011;6364;53.590;9.956;2022-11-15T12:19:41;17.73;;;11.38;;
12597;SDS011;6364;53.590;9.956;2022-11-15T12:27:59;18.05;;;12.77;;
12597;SDS011;6364;53.590;9.956;2022-11-15T12:30:21;18.20;;;12.00;;
12597;SDS011;6364;53.590;9.956;2022-11-15T12:32:54;13.93;;;10.80;;
12597;SDS011;6364;53.590;9.956;2022-11-15T12:35:38;16.80;;;11.80;;
12597;SDS011;6364;53.590;9.956;2022-11-15T12:41:21;16.02;;;10.70;;
12597;SDS011;6364;53.590;9.956;2022-11-15T12:43:47;22.70;;;10.65;;
12597;SDS011;6364;53.590;9.956;2022-11-15T12:46:20;22.38;;;11.00;;
12597;SDS011;6364;53.590;9.956;2022-11-15T12:51:16;20.17;;;10.65;;
12597;SDS011;6364;53.590;9.956;2022-11-15T12:53:42;18.23;;;10.07;;
12597;SDS011;6364;53.590;9.956;2022-11-15T12:58:43;16.98;;;10.10;;
12597;SDS011;6364;53.590;9.956;2022-11-15T13:01:09;17.52;;;10.40;;
12597;SDS011;6364;53.590;9.956;2022-11-15T13:03:35;17.10;;;10.23;;
12597;SDS011;6364;53.590;9.956;2022-11-15T13:06:02;14.02;;;9.68;;
12597;SDS011;6364;53.590;9.956;2022-11-15T13:08:36;16.58;;;10.20;;
12597;SDS011;6364;53.590;9.956;2022-11-15T13:17:03;13.93;;;9.73;;
12597;SDS011;6364;53.590;9.956;2022-11-15T13:19:40;16.83;;;10.13;;
12597;SDS011;6364;53.590;9.956;2022-11-15T13:22:09;15.70;;;10.27;;
12597;SDS011;6364;53.590;9.956;2022-11-15T13:24:53;20.35;;;10.13;;
12597;SDS011;6364;53.590;9.956;2022-11-15T13:27:19;14.07;;;9.88;;
12597;SDS011;6364;53.590;9.956;2022-11-15T13:29:44;16.98;;;10.68;;
12597;SDS011;6364;53.590;9.956;2022-11-15T13:32:13;16.38;;;10.48;;
12597;SDS011;6364;53.590;9.956;2022-11-15T13:34:43;15.10;;;9.70;;
12597;SDS011;6364;53.590;9.956;2022-11-15T13:39:45;18.88;;;10.48;;
12597;SDS011;6364;53.590;9.956;2022-11-15T13:42:14;20.58;;;10.18;;
12597;SDS011;6364;53.590;9.956;2022-11-15T13:44:40;15.93;;;10.10;;
12597;SDS011;6364;53.590;9.956;2022-11-15T13:47:20;20.15;;;9.93;;
12597;SDS011;6364;53.590;9.956;2022-11-15T13:49:46;15.55;;;10.57;;
12597;SDS011;6364;53.590;9.956;2022-11-15T13:52:13;14.73;;;10.25;;
12597;SDS011;6364;53.590;9.956;2022-11-15T13:54:43;14.93;;;9.70;;
12597;SDS011;6364;53.590;9.956;2022-11-15T13:57:38;14.88;;;10.32;;
12597;SDS011;6364;53.590;9.956;2022-11-15T14:03:19;13.32;;;9.85;;
12597;SDS011;6364;53.590;9.956;2022-11-15T14:06:06;16.65;;;9.60;;
12597;SDS011;6364;53.590;9.956;2022-11-15T14:08:37;18.13;;;9.90;;
12597;SDS011;6364;53.590;9.956;2022-11-15T14:11:13;19.20;;;10.38;;
12597;SDS011;6364;53.590;9.956;2022-11-15T14:13:41;17.98;;;10.13;;
12597;SDS011;6364;53.590;9.956;2022-11-15T14:16:17;21.10;;;10.23;;
12597;SDS011;6364;53.590;9.956;2022-11-15T14:18:49;17.10;;;10.57;;
12597;SDS011;6364;53.590;9.956;2022-11-15T14:21:15;15.35;;;10.07;;
12597;SDS011;6364;53.590;9.956;2022-11-15T14:23:41;17.63;;;10.32;;
12597;SDS011;6364;53.590;9.956;2022-11-15T14:26:11;14.75;;;10.10;;
12597;SDS011;6364;53.590;9.956;2022-11-15T14:28:57;17.27;;;10.02;;
12597;SDS011;6364;53.590;9.956;2022-11-15T14:31:22;14.70;;;10.20;;
12597;SDS011;6364;53.590;9.956;2022-11-15T14:33:47;15.13;;;10.35;;
12597;SDS011;6364;53.590;9.956;2022-11-15T14:36:14;14.60;;;10.07;;
12597;SDS011;6364;53.590;9.956;2022-11-15T14:38:43;19.90;;;10.77;;
12597;SDS011;6364;53.590;9.956;2022-11-15T14:41:22;16.77;;;10.38;;
12597;SDS011;6364;53.590;9.956;2022-11-15T14:43:49;15.93;;;10.43;;
12597;SDS011;6364;53.590;9.956;2022-11-15T14:46:14;15.68;;;11.02;;
12597;SDS011;6364;53.590;9.956;2022-11-15T14:48:41;15.20;;;10.02;;
12597;SDS011;6364;53.590;9.956;2022-11-15T14:51:11;19.65;;;9.75;;
12597;SDS011;6364;53.590;9.956;2022-11-15T14:53:37;15.57;;;10.48;;
12597;SDS011;6364;53.590;9.956;2022-11-15T14:56:04;16.90;;;11.05;;
12597;SDS011;6364;53.590;9.956;2022-11-15T14:58:29;16.35;;;10.98;;
12597;SDS011;6364;53.590;9.956;2022-11-15T15:00:54;17.90;;;10.63;;
12597;SDS011;6364;53.590;9.956;2022-11-15T15:03:20;15.60;;;11.18;;
12597;SDS011;6364;53.590;9.956;2022-11-15T15:05:45;17.30;;;10.82;;
12597;SDS011;6364;53.590;9.956;2022-11-15T15:08:10;17.05;;;11.00;;
12597;SDS011;6364;53.590;9.956;2022-11-15T15:10:38;17.10;;;10.57;;
12597;SDS011;6364;53.590;9.956;2022-11-15T15:13:08;16.27;;;10.73;;
12597;SDS011;6364;53.590;9.956;2022-11-15T15:15:37;18.00;;;11.10;;
12597;SDS011;6364;53.590;9.956;2022-11-15T15:18:03;18.90;;;11.15;;
12597;SDS011;6364;53.590;9.956;2022-11-15T15:20:30;21.73;;;12.23;;
12597;SDS011;6364;53.590;9.956;2022-11-15T15:22:56;15.50;;;10.57;;
12597;SDS011;6364;53.590;9.956;2022-11-15T15:27:52;25.20;;;12.25;;
12597;SDS011;6364;53.590;9.956;2022-11-15T15:30:17;16.40;;;11.25;;
12597;SDS011;6364;53.590;9.956;2022-11-15T15:32:43;20.20;;;11.15;;
12597;SDS011;6364;53.590;9.956;2022-11-15T15:35:10;15.65;;;11.20;;
12597;SDS011;6364;53.590;9.956;2022-11-15T15:37:37;16.85;;;11.93;;
12597;SDS011;6364;53.590;9.956;2022-11-15T15:40:02;19.05;;;11.60;;
12597;SDS011;6364;53.590;9.956;2022-11-15T15:42:28;17.10;;;11.45;;
12597;SDS011;6364;53.590;9.956;2022-11-15T15:44:53;25.77;;;12.50;;
12597;SDS011;6364;53.590;9.956;2022-11-15T15:47:19;19.42;;;12.43;;
12597;SDS011;6364;53.590;9.956;2022-11-15T15:49:46;18.38;;;12.75;;
12597;SDS011;6364;53.590;9.956;2022-11-15T15:52:11;24.40;;;13.05;;
12597;SDS011;6364;53.590;9.956;2022-11-15T15:54:37;20.05;;;13.20;;
12597;SDS011;6364;53.590;9.956;2022-11-15T15:57:03;22.33;;;12.95;;
12597;SDS011;6364;53.590;9.956;2022-11-15T15:59:30;22.17;;;13.57;;
12597;SDS011;6364;53.590;9.956;2022-11-15T16:01:56;17.15;;;12.57;;
12597;SDS011;6364;53.590;9.956;2022-11-15T16:04:21;17.23;;;12.52;;
12597;SDS011;6364;53.590;9.956;2022-11-15T16:06:47;24.70;;;13.45;;
12597;SDS011;6364;53.590;9.956;2022-11-15T16:09:15;18.65;;;13.38;;
12597;SDS011;6364;53.590;9.956;2022-11-15T16:11:43;18.67;;;12.23;;
12597;SDS011;6364;53.590;9.956;2022-11-15T16:14:10;25.08;;;13.13;;
12597;SDS011;6364;53.590;9.956;2022-11-15T16:16:35;21.13;;;13.02;;
12597;SDS011;6364;53.590;9.956;2022-11-15T16:19:01;20.48;;;13.63;;
12597;SDS011;6364;53.590;9.956;2022-11-15T16:21:27;20.20;;;12.60;;
12597;SDS011;6364;53.590;9.956;2022-11-15T16:23:53;19.42;;;12.35;;
12597;SDS011;6364;53.590;9.956;2022-11-15T16:26:22;18.90;;;12.52;;
12597;SDS011;6364;53.590;9.956;2022-11-15T16:28:49;18.70;;;12.55;;
12597;SDS011;6364;53.590;9.956;2022-11-15T16:31:15;20.00;;;12.00;;
12597;SDS011;6364;53.590;9.956;2022-11-15T16:33:43;21.00;;;12.50;;
12597;SDS011;6364;53.590;9.956;2022-11-15T16:36:18;23.00;;;12.10;;
12597;SDS011;6364;53.590;9.956;2022-11-15T16:38:43;20.23;;;12.50;;
12597;SDS011;6364;53.590;9.956;2022-11-15T16:41:09;15.82;;;11.65;;